sensor_id;sensor_type;location;lat;lon;timestamp;P1;durP1;ratioP1;P2;durP2;ratioP2
31734;SDS011;18313;48.518;9.124;2024-01-11T00:00:41;63.10;;;27.15;;
31734;SDS011;18313;48.518;9.124;2024-01-11T00:03:08;66.05;;;29.48;;
31734;SDS011;18313;48.518;9.124;2024-01-11T00:05:36;62.78;;;30.70;;
31734;SDS011;18313;48.518;9.124;2024-01-11T00:08:04;61.92;;;28.48;;
31734;SDS011;18313;48.518;9.124;2024-01-11T00:10:31;65.55;;;29.35;;
31734;SDS011;18313;48.518;9.124;2024-01-11T00:12:58;59.05;;;27.17;;
31734;SDS011;18313;48.518;9.124;2024-01-11T00:15:25;60.33;;;27.83;;
31734;SDS011;18313;48.518;9.124;2024-01-11T00:17:53;61.70;;;26.83;;
31734;SDS011;18313;48.518;9.124;2024-01-11T00:20:20;55.35;;;26.33;;
31734;SDS011;18313;48.518;9.124;2024-01-11T00:22:47;53.55;;;26.10;;
31734;SDS011;18313;48.518;9.124;2024-01-11T00:25:15;59.70;;;27.52;;
31734;SDS011;18313;48.518;9.124;2024-01-11T00:27:42;55.63;;;28.00;;
31734;SDS011;18313;48.518;9.124;2024-01-11T00:30:10;57.30;;;26.65;;
31734;SDS011;18313;48.518;9.124;2024-01-11T00:32:37;58.25;;;27.05;;
31734;SDS011;18313;48.518;9.124;2024-01-11T00:35:04;58.15;;;28.27;;
31734;SDS011;18313;48.518;9.124;2024-01-11T00:37:32;53.42;;;26.98;;
31734;SDS011;18313;48.518;9.124;2024-01-11T00:39:59;54.47;;;26.83;;
31734;SDS011;18313;48.518;9.124;2024-01-11T00:42:27;54.53;;;26.20;;
31734;SDS011;18313;48.518;9.124;2024-01-11T00:44:54;56.90;;;25.90;;
31734;SDS011;18313;48.518;9.124;2024-01-11T00:47:22;55.50;;;26.80;;
31734;SDS011;18313;48.518;9.124;2024-01-11T00:49:49;59.72;;;27.35;;
31734;SDS011;18313;48.518;9.124;2024-01-11T00:52:16;61.58;;;28.60;;
31734;SDS011;18313;48.518;9.124;2024-01-11T00:54:43;55.53;;;26.65;;
31734;SDS011;18313;48.518;9.124;2024-01-11T00:57:11;58.85;;;27.67;;
31734;SDS011;18313;48.518;9.124;2024-01-11T00:59:39;52.40;;;24.90;;
31734;SDS011;18313;48.518;9.124;2024-01-11T01:02:07;53.70;;;24.90;;
31734;SDS011;18313;48.518;9.124;2024-01-11T01:04:38;55.17;;;25.80;;
31734;SDS011;18313;48.518;9.124;2024-01-11T01:07:05;59.70;;;27.40;;
31734;SDS011;18313;48.518;9.124;2024-01-11T01:09:33;55.78;;;25.73;;
31734;SDS011;18313;48.518;9.124;2024-01-11T01:12:01;57.33;;;26.70;;
31734;SDS011;18313;48.518;9.124;2024-01-11T01:14:28;57.55;;;25.30;;
31734;SDS011;18313;48.518;9.124;2024-01-11T01:16:56;58.92;;;26.42;;
31734;SDS011;18313;48.518;9.124;2024-01-11T01:19:23;52.13;;;24.45;;
31734;SDS011;18313;48.518;9.124;2024-01-11T01:21:51;54.85;;;26.02;;
31734;SDS011;18313;48.518;9.124;2024-01-11T01:24:18;59.25;;;25.83;;
31734;SDS011;18313;48.518;9.124;2024-01-11T01:26:46;55.17;;;25.65;;
31734;SDS011;18313;48.518;9.124;2024-01-11T01:29:13;59.40;;;27.80;;
31734;SDS011;18313;48.518;9.124;2024-01-11T01:31:41;59.55;;;24.70;;
31734;SDS011;18313;48.518;9.124;2024-01-11T01:34:08;64.78;;;27.70;;
31734;SDS011;18313;48.518;9.124;2024-01-11T01:36:35;65.90;;;28.27;;
31734;SDS011;18313;48.518;9.124;2024-01-11T01:39:03;59.40;;;27.65;;
31734;SDS011;18313;48.518;9.124;2024-01-11T01:41:30;61.67;;;27.92;;
31734;SDS011;18313;48.518;9.124;2024-01-11T01:43:57;65.60;;;28.30;;
31734;SDS011;18313;48.518;9.124;2024-01-11T01:46:24;62.95;;;27.63;;
31734;SDS011;18313;48.518;9.124;2024-01-11T01:48:54;60.53;;;26.05;;
31734;SDS011;18313;48.518;9.124;2024-01-11T01:51:24;55.55;;;25.75;;
31734;SDS011;18313;48.518;9.124;2024-01-11T01:53:54;48.47;;;23.23;;
31734;SDS011;18313;48.518;9.124;2024-01-11T01:56:23;53.05;;;24.55;;
31734;SDS011;18313;48.518;9.124;2024-01-11T01:58:51;52.75;;;23.73;;
31734;SDS011;18313;48.518;9.124;2024-01-11T02:01:20;49.13;;;24.08;;
31734;SDS011;18313;48.518;9.124;2024-01-11T02:03:49;51.20;;;25.25;;
31734;SDS011;18313;48.518;9.124;2024-01-11T02:06:18;49.63;;;23.17;;
31734;SDS011;18313;48.518;9.124;2024-01-11T02:08:48;53.65;;;24.42;;
31734;SDS011;18313;48.518;9.124;2024-01-11T02:11:20;59.65;;;25.13;;
31734;SDS011;18313;48.518;9.124;2024-01-11T02:13:48;54.50;;;24.02;;
31734;SDS011;18313;48.518;9.124;2024-01-11T02:16:16;51.42;;;24.35;;
31734;SDS011;18313;48.518;9.124;2024-01-11T02:18:44;64.95;;;26.38;;
31734;SDS011;18313;48.518;9.124;2024-01-11T02:21:11;60.17;;;26.65;;
31734;SDS011;18313;48.518;9.124;2024-01-11T02:23:51;62.08;;;28.10;;
31734;SDS011;18313;48.518;9.124;2024-01-11T02:26:31;67.40;;;29.00;;
31734;SDS011;18313;48.518;9.124;2024-01-11T02:28:59;64.90;;;29.08;;
31734;SDS011;18313;48.518;9.124;2024-01-11T02:31:27;62.20;;;27.85;;
31734;SDS011;18313;48.518;9.124;2024-01-11T02:33:54;58.42;;;28.30;;
31734;SDS011;18313;48.518;9.124;2024-01-11T02:36:23;66.03;;;29.35;;
31734;SDS011;18313;48.518;9.124;2024-01-11T02:38:51;62.50;;;27.90;;
31734;SDS011;18313;48.518;9.124;2024-01-11T02:41:19;58.33;;;27.02;;
31734;SDS011;18313;48.518;9.124;2024-01-11T02:43:48;65.68;;;28.40;;
31734;SDS011;18313;48.518;9.124;2024-01-11T02:46:16;63.70;;;27.85;;
31734;SDS011;18313;48.518;9.124;2024-01-11T02:48:44;62.67;;;28.45;;
31734;SDS011;18313;48.518;9.124;2024-01-11T02:51:11;60.83;;;27.65;;
31734;SDS011;18313;48.518;9.124;2024-01-11T02:53:38;65.18;;;29.23;;
31734;SDS011;18313;48.518;9.124;2024-01-11T02:56:05;65.40;;;29.35;;
31734;SDS011;18313;48.518;9.124;2024-01-11T02:58:33;65.65;;;29.73;;
31734;SDS011;18313;48.518;9.124;2024-01-11T03:01:00;70.47;;;30.40;;
31734;SDS011;18313;48.518;9.124;2024-01-11T03:03:27;70.53;;;31.73;;
31734;SDS011;18313;48.518;9.124;2024-01-11T03:05:54;65.80;;;31.02;;
31734;SDS011;18313;48.518;9.124;2024-01-11T03:08:22;64.50;;;29.55;;
31734;SDS011;18313;48.518;9.124;2024-01-11T03:10:49;70.10;;;29.85;;
31734;SDS011;18313;48.518;9.124;2024-01-11T03:13:16;67.53;;;30.65;;
31734;SDS011;18313;48.518;9.124;2024-01-11T03:15:44;63.15;;;28.70;;
31734;SDS011;18313;48.518;9.124;2024-01-11T03:18:11;61.10;;;29.40;;
31734;SDS011;18313;48.518;9.124;2024-01-11T03:20:38;66.80;;;29.23;;
31734;SDS011;18313;48.518;9.124;2024-01-11T03:23:05;68.65;;;30.50;;
31734;SDS011;18313;48.518;9.124;2024-01-11T03:25:33;62.50;;;29.63;;
31734;SDS011;18313;48.518;9.124;2024-01-11T03:28:00;70.88;;;30.88;;
31734;SDS011;18313;48.518;9.124;2024-01-11T03:30:27;65.65;;;29.65;;
31734;SDS011;18313;48.518;9.124;2024-01-11T03:32:55;61.38;;;29.15;;
31734;SDS011;18313;48.518;9.124;2024-01-11T03:35:22;57.78;;;27.45;;
31734;SDS011;18313;48.518;9.124;2024-01-11T03:37:49;61.70;;;27.50;;
31734;SDS011;18313;48.518;9.124;2024-01-11T03:40:17;66.90;;;30.45;;
31734;SDS011;18313;48.518;9.124;2024-01-11T03:42:44;61.65;;;28.92;;
31734;SDS011;18313;48.518;9.124;2024-01-11T03:45:11;58.80;;;27.27;;
31734;SDS011;18313;48.518;9.124;2024-01-11T03:47:38;62.22;;;27.75;;
31734;SDS011;18313;48.518;9.124;2024-01-11T03:50:06;65.00;;;30.02;;
31734;SDS011;18313;48.518;9.124;2024-01-11T03:52:33;64.32;;;28.02;;
31734;SDS011;18313;48.518;9.124;2024-01-11T03:55:00;59.35;;;29.50;;
31734;SDS011;18313;48.518;9.124;2024-01-11T03:57:27;59.20;;;28.42;;
31734;SDS011;18313;48.518;9.124;2024-01-11T03:59:54;63.35;;;28.40;;
31734;SDS011;18313;48.518;9.124;2024-01-11T04:02:22;64.63;;;29.10;;
31734;SDS011;18313;48.518;9.124;2024-01-11T04:04:49;59.90;;;27.38;;
31734;SDS011;18313;48.518;9.124;2024-01-11T04:07:16;61.38;;;28.75;;
31734;SDS011;18313;48.518;9.124;2024-01-11T04:09:43;58.00;;;27.25;;
31734;SDS011;18313;48.518;9.124;2024-01-11T04:12:10;61.38;;;27.20;;
31734;SDS011;18313;48.518;9.124;2024-01-11T04:14:38;61.42;;;28.17;;
31734;SDS011;18313;48.518;9.124;2024-01-11T04:17:08;61.05;;;28.50;;
31734;SDS011;18313;48.518;9.124;2024-01-11T04:19:36;63.75;;;27.83;;
31734;SDS011;18313;48.518;9.124;2024-01-11T04:22:03;61.53;;;28.75;;
31734;SDS011;18313;48.518;9.124;2024-01-11T04:24:30;64.68;;;30.05;;
31734;SDS011;18313;48.518;9.124;2024-01-11T04:26:58;59.33;;;27.80;;
31734;SDS011;18313;48.518;9.124;2024-01-11T04:29:25;67.22;;;28.85;;
31734;SDS011;18313;48.518;9.124;2024-01-11T04:31:52;68.22;;;28.17;;
31734;SDS011;18313;48.518;9.124;2024-01-11T04:34:20;63.25;;;27.35;;
31734;SDS011;18313;48.518;9.124;2024-01-11T04:36:47;65.60;;;29.58;;
31734;SDS011;18313;48.518;9.124;2024-01-11T04:39:14;62.50;;;27.52;;
31734;SDS011;18313;48.518;9.124;2024-01-11T04:41:41;55.97;;;26.30;;
31734;SDS011;18313;48.518;9.124;2024-01-11T04:44:09;55.80;;;27.20;;
31734;SDS011;18313;48.518;9.124;2024-01-11T04:46:37;59.53;;;25.85;;
31734;SDS011;18313;48.518;9.124;2024-01-11T04:49:04;56.72;;;26.85;;
31734;SDS011;18313;48.518;9.124;2024-01-11T04:51:31;64.43;;;27.00;;
31734;SDS011;18313;48.518;9.124;2024-01-11T04:53:58;58.83;;;26.52;;
31734;SDS011;18313;48.518;9.124;2024-01-11T04:56:25;59.88;;;26.85;;
31734;SDS011;18313;48.518;9.124;2024-01-11T04:58:52;56.88;;;27.25;;
31734;SDS011;18313;48.518;9.124;2024-01-11T05:01:20;59.30;;;27.27;;
31734;SDS011;18313;48.518;9.124;2024-01-11T05:03:48;61.05;;;28.17;;
31734;SDS011;18313;48.518;9.124;2024-01-11T05:06:16;56.83;;;27.48;;
31734;SDS011;18313;48.518;9.124;2024-01-11T05:08:45;55.63;;;26.73;;
31734;SDS011;18313;48.518;9.124;2024-01-11T05:11:20;57.08;;;27.27;;
31734;SDS011;18313;48.518;9.124;2024-01-11T05:13:48;62.67;;;28.60;;
31734;SDS011;18313;48.518;9.124;2024-01-11T05:18:53;66.88;;;30.75;;
31734;SDS011;18313;48.518;9.124;2024-01-11T05:21:22;65.65;;;29.73;;
31734;SDS011;18313;48.518;9.124;2024-01-11T05:23:50;63.70;;;29.92;;
31734;SDS011;18313;48.518;9.124;2024-01-11T05:26:18;63.40;;;29.45;;
31734;SDS011;18313;48.518;9.124;2024-01-11T05:28:45;60.70;;;28.02;;
31734;SDS011;18313;48.518;9.124;2024-01-11T05:31:13;59.17;;;27.10;;
31734;SDS011;18313;48.518;9.124;2024-01-11T05:33:42;58.92;;;26.58;;
31734;SDS011;18313;48.518;9.124;2024-01-11T05:36:10;57.75;;;26.13;;
31734;SDS011;18313;48.518;9.124;2024-01-11T05:38:38;58.78;;;26.90;;
31734;SDS011;18313;48.518;9.124;2024-01-11T05:41:07;64.55;;;26.85;;
31734;SDS011;18313;48.518;9.124;2024-01-11T05:43:35;67.35;;;27.20;;
31734;SDS011;18313;48.518;9.124;2024-01-11T05:46:03;61.72;;;27.23;;
31734;SDS011;18313;48.518;9.124;2024-01-11T05:48:31;70.93;;;31.48;;
31734;SDS011;18313;48.518;9.124;2024-01-11T05:50:58;72.82;;;30.63;;
31734;SDS011;18313;48.518;9.124;2024-01-11T05:53:26;63.90;;;28.85;;
31734;SDS011;18313;48.518;9.124;2024-01-11T05:55:54;61.80;;;29.52;;
31734;SDS011;18313;48.518;9.124;2024-01-11T05:58:21;62.15;;;28.10;;
31734;SDS011;18313;48.518;9.124;2024-01-11T06:00:48;61.90;;;27.70;;
31734;SDS011;18313;48.518;9.124;2024-01-11T06:03:15;60.63;;;28.55;;
31734;SDS011;18313;48.518;9.124;2024-01-11T06:05:42;57.35;;;26.55;;
31734;SDS011;18313;48.518;9.124;2024-01-11T06:08:10;64.50;;;28.13;;
31734;SDS011;18313;48.518;9.124;2024-01-11T06:10:38;62.53;;;28.48;;
31734;SDS011;18313;48.518;9.124;2024-01-11T06:13:05;62.58;;;27.60;;
31734;SDS011;18313;48.518;9.124;2024-01-11T06:15:33;60.05;;;27.67;;
31734;SDS011;18313;48.518;9.124;2024-01-11T06:18:00;65.95;;;27.33;;
31734;SDS011;18313;48.518;9.124;2024-01-11T06:20:27;57.28;;;27.52;;
31734;SDS011;18313;48.518;9.124;2024-01-11T06:22:55;60.90;;;26.73;;
31734;SDS011;18313;48.518;9.124;2024-01-11T06:25:22;54.70;;;26.42;;
31734;SDS011;18313;48.518;9.124;2024-01-11T06:27:50;62.88;;;26.83;;
31734;SDS011;18313;48.518;9.124;2024-01-11T06:30:17;61.08;;;27.13;;
31734;SDS011;18313;48.518;9.124;2024-01-11T06:32:44;63.42;;;27.88;;
31734;SDS011;18313;48.518;9.124;2024-01-11T06:35:12;62.17;;;29.08;;
31734;SDS011;18313;48.518;9.124;2024-01-11T06:37:39;68.22;;;28.05;;
31734;SDS011;18313;48.518;9.124;2024-01-11T06:40:06;60.58;;;28.25;;
31734;SDS011;18313;48.518;9.124;2024-01-11T06:42:35;65.00;;;27.17;;
31734;SDS011;18313;48.518;9.124;2024-01-11T06:45:02;58.00;;;27.23;;
31734;SDS011;18313;48.518;9.124;2024-01-11T06:47:30;67.88;;;27.95;;
31734;SDS011;18313;48.518;9.124;2024-01-11T06:49:57;62.88;;;28.08;;
31734;SDS011;18313;48.518;9.124;2024-01-11T06:52:26;60.25;;;27.83;;
31734;SDS011;18313;48.518;9.124;2024-01-11T06:54:53;63.90;;;27.27;;
31734;SDS011;18313;48.518;9.124;2024-01-11T06:57:20;57.17;;;27.20;;
31734;SDS011;18313;48.518;9.124;2024-01-11T06:59:48;65.45;;;29.42;;
31734;SDS011;18313;48.518;9.124;2024-01-11T07:02:15;62.47;;;28.60;;
31734;SDS011;18313;48.518;9.124;2024-01-11T07:04:43;59.30;;;25.80;;
31734;SDS011;18313;48.518;9.124;2024-01-11T07:07:11;60.05;;;28.10;;
31734;SDS011;18313;48.518;9.124;2024-01-11T07:09:38;69.25;;;29.70;;
31734;SDS011;18313;48.518;9.124;2024-01-11T07:12:05;81.25;;;31.42;;
31734;SDS011;18313;48.518;9.124;2024-01-11T07:14:33;65.75;;;30.20;;
31734;SDS011;18313;48.518;9.124;2024-01-11T07:17:00;76.50;;;32.05;;
31734;SDS011;18313;48.518;9.124;2024-01-11T07:19:27;73.15;;;31.33;;
31734;SDS011;18313;48.518;9.124;2024-01-11T07:21:54;69.78;;;31.02;;
31734;SDS011;18313;48.518;9.124;2024-01-11T07:24:22;60.88;;;29.05;;
31734;SDS011;18313;48.518;9.124;2024-01-11T07:26:49;68.97;;;29.40;;
31734;SDS011;18313;48.518;9.124;2024-01-11T07:29:16;67.93;;;28.95;;
31734;SDS011;18313;48.518;9.124;2024-01-11T07:31:43;70.30;;;27.95;;
31734;SDS011;18313;48.518;9.124;2024-01-11T07:34:10;64.70;;;29.17;;
31734;SDS011;18313;48.518;9.124;2024-01-11T07:36:38;62.60;;;28.20;;
31734;SDS011;18313;48.518;9.124;2024-01-11T07:39:05;63.42;;;29.05;;
31734;SDS011;18313;48.518;9.124;2024-01-11T07:41:32;61.42;;;27.70;;
31734;SDS011;18313;48.518;9.124;2024-01-11T07:43:59;64.53;;;27.60;;
31734;SDS011;18313;48.518;9.124;2024-01-11T07:46:26;61.65;;;28.10;;
31734;SDS011;18313;48.518;9.124;2024-01-11T07:49:05;73.32;;;30.40;;
31734;SDS011;18313;48.518;9.124;2024-01-11T07:51:33;70.35;;;31.30;;
31734;SDS011;18313;48.518;9.124;2024-01-11T07:54:03;64.65;;;28.40;;
31734;SDS011;18313;48.518;9.124;2024-01-11T07:56:31;70.97;;;31.00;;
31734;SDS011;18313;48.518;9.124;2024-01-11T07:58:58;62.22;;;27.85;;
31734;SDS011;18313;48.518;9.124;2024-01-11T08:01:26;65.55;;;29.10;;
31734;SDS011;18313;48.518;9.124;2024-01-11T08:03:53;60.90;;;27.58;;
31734;SDS011;18313;48.518;9.124;2024-01-11T08:06:20;63.75;;;29.73;;
31734;SDS011;18313;48.518;9.124;2024-01-11T08:08:48;57.95;;;28.08;;
31734;SDS011;18313;48.518;9.124;2024-01-11T08:11:19;62.58;;;30.45;;
31734;SDS011;18313;48.518;9.124;2024-01-11T08:13:46;61.60;;;29.02;;
31734;SDS011;18313;48.518;9.124;2024-01-11T08:16:17;67.18;;;30.15;;
31734;SDS011;18313;48.518;9.124;2024-01-11T08:18:46;66.03;;;29.33;;
31734;SDS011;18313;48.518;9.124;2024-01-11T08:21:15;59.85;;;28.05;;
31734;SDS011;18313;48.518;9.124;2024-01-11T08:23:42;62.65;;;27.42;;
31734;SDS011;18313;48.518;9.124;2024-01-11T08:26:15;70.97;;;29.20;;
31734;SDS011;18313;48.518;9.124;2024-01-11T08:28:45;63.85;;;30.25;;
31734;SDS011;18313;48.518;9.124;2024-01-11T08:31:13;63.60;;;29.38;;
31734;SDS011;18313;48.518;9.124;2024-01-11T08:33:40;76.30;;;31.73;;
31734;SDS011;18313;48.518;9.124;2024-01-11T08:36:08;66.70;;;32.33;;
31734;SDS011;18313;48.518;9.124;2024-01-11T08:38:35;72.03;;;33.78;;
31734;SDS011;18313;48.518;9.124;2024-01-11T08:41:03;122.90;;;41.70;;
31734;SDS011;18313;48.518;9.124;2024-01-11T08:43:30;110.18;;;36.85;;
31734;SDS011;18313;48.518;9.124;2024-01-11T08:45:58;82.82;;;33.90;;
31734;SDS011;18313;48.518;9.124;2024-01-11T08:48:26;78.53;;;32.53;;
31734;SDS011;18313;48.518;9.124;2024-01-11T08:50:54;69.90;;;30.38;;
31734;SDS011;18313;48.518;9.124;2024-01-11T08:53:21;71.28;;;31.08;;
31734;SDS011;18313;48.518;9.124;2024-01-11T08:55:49;71.13;;;29.90;;
31734;SDS011;18313;48.518;9.124;2024-01-11T08:58:16;79.90;;;33.15;;
31734;SDS011;18313;48.518;9.124;2024-01-11T09:00:43;89.70;;;36.00;;
31734;SDS011;18313;48.518;9.124;2024-01-11T09:03:11;77.40;;;34.05;;
31734;SDS011;18313;48.518;9.124;2024-01-11T09:05:40;85.65;;;35.65;;
31734;SDS011;18313;48.518;9.124;2024-01-11T09:08:07;86.43;;;36.03;;
31734;SDS011;18313;48.518;9.124;2024-01-11T09:10:35;76.28;;;34.60;;
31734;SDS011;18313;48.518;9.124;2024-01-11T09:13:02;79.03;;;33.72;;
31734;SDS011;18313;48.518;9.124;2024-01-11T09:15:29;73.97;;;32.35;;
31734;SDS011;18313;48.518;9.124;2024-01-11T09:17:57;77.40;;;33.00;;
31734;SDS011;18313;48.518;9.124;2024-01-11T09:20:27;73.28;;;31.85;;
31734;SDS011;18313;48.518;9.124;2024-01-11T09:22:54;84.00;;;33.35;;
31734;SDS011;18313;48.518;9.124;2024-01-11T09:25:21;69.80;;;31.33;;
31734;SDS011;18313;48.518;9.124;2024-01-11T09:27:48;83.53;;;32.92;;
31734;SDS011;18313;48.518;9.124;2024-01-11T09:30:16;73.07;;;32.67;;
31734;SDS011;18313;48.518;9.124;2024-01-11T09:32:43;71.47;;;30.95;;
31734;SDS011;18313;48.518;9.124;2024-01-11T09:35:11;87.43;;;33.70;;
31734;SDS011;18313;48.518;9.124;2024-01-11T09:37:41;88.72;;;35.17;;
31734;SDS011;18313;48.518;9.124;2024-01-11T09:40:13;84.50;;;36.05;;
31734;SDS011;18313;48.518;9.124;2024-01-11T09:42:40;78.53;;;34.33;;
31734;SDS011;18313;48.518;9.124;2024-01-11T09:45:12;85.03;;;35.97;;
31734;SDS011;18313;48.518;9.124;2024-01-11T09:47:42;81.38;;;33.85;;
31734;SDS011;18313;48.518;9.124;2024-01-11T09:50:13;77.18;;;35.13;;
31734;SDS011;18313;48.518;9.124;2024-01-11T09:52:48;77.53;;;34.70;;
31734;SDS011;18313;48.518;9.124;2024-01-11T09:55:16;78.25;;;35.28;;
31734;SDS011;18313;48.518;9.124;2024-01-11T09:57:45;71.18;;;33.05;;
31734;SDS011;18313;48.518;9.124;2024-01-11T10:00:13;78.70;;;34.03;;
31734;SDS011;18313;48.518;9.124;2024-01-11T10:02:45;85.43;;;37.03;;
31734;SDS011;18313;48.518;9.124;2024-01-11T10:05:13;85.40;;;35.90;;
31734;SDS011;18313;48.518;9.124;2024-01-11T10:07:42;86.70;;;36.17;;
31734;SDS011;18313;48.518;9.124;2024-01-11T10:10:09;87.50;;;36.78;;
31734;SDS011;18313;48.518;9.124;2024-01-11T10:12:37;83.75;;;38.72;;
31734;SDS011;18313;48.518;9.124;2024-01-11T10:15:05;86.03;;;38.10;;
31734;SDS011;18313;48.518;9.124;2024-01-11T10:17:37;85.07;;;38.08;;
31734;SDS011;18313;48.518;9.124;2024-01-11T10:20:10;82.13;;;35.38;;
31734;SDS011;18313;48.518;9.124;2024-01-11T10:22:40;88.07;;;37.13;;
31734;SDS011;18313;48.518;9.124;2024-01-11T10:25:12;79.55;;;36.03;;
31734;SDS011;18313;48.518;9.124;2024-01-11T10:27:40;80.30;;;33.88;;
31734;SDS011;18313;48.518;9.124;2024-01-11T10:30:09;73.78;;;34.63;;
31734;SDS011;18313;48.518;9.124;2024-01-11T10:32:39;80.75;;;35.63;;
31734;SDS011;18313;48.518;9.124;2024-01-11T10:35:07;85.65;;;36.80;;
31734;SDS011;18313;48.518;9.124;2024-01-11T10:37:34;82.63;;;38.03;;
31734;SDS011;18313;48.518;9.124;2024-01-11T10:40:05;78.32;;;35.33;;
31734;SDS011;18313;48.518;9.124;2024-01-11T10:42:40;76.03;;;34.85;;
31734;SDS011;18313;48.518;9.124;2024-01-11T10:45:15;71.47;;;34.22;;
31734;SDS011;18313;48.518;9.124;2024-01-11T10:47:47;76.93;;;34.75;;
31734;SDS011;18313;48.518;9.124;2024-01-11T10:50:22;75.28;;;36.38;;
31734;SDS011;18313;48.518;9.124;2024-01-11T10:52:56;72.00;;;33.75;;
31734;SDS011;18313;48.518;9.124;2024-01-11T10:55:32;72.90;;;34.33;;
31734;SDS011;18313;48.518;9.124;2024-01-11T10:58:01;72.78;;;34.15;;
31734;SDS011;18313;48.518;9.124;2024-01-11T11:00:29;67.38;;;32.60;;
31734;SDS011;18313;48.518;9.124;2024-01-11T11:02:58;64.90;;;32.72;;
31734;SDS011;18313;48.518;9.124;2024-01-11T11:05:27;67.80;;;33.00;;
31734;SDS011;18313;48.518;9.124;2024-01-11T11:07:56;69.60;;;32.70;;
31734;SDS011;18313;48.518;9.124;2024-01-11T11:10:28;69.13;;;32.63;;
31734;SDS011;18313;48.518;9.124;2024-01-11T11:12:57;69.50;;;33.95;;
31734;SDS011;18313;48.518;9.124;2024-01-11T11:15:29;72.72;;;34.47;;
31734;SDS011;18313;48.518;9.124;2024-01-11T11:17:58;69.35;;;33.85;;
31734;SDS011;18313;48.518;9.124;2024-01-11T11:20:27;74.38;;;35.72;;
31734;SDS011;18313;48.518;9.124;2024-01-11T11:23:02;67.35;;;34.10;;
31734;SDS011;18313;48.518;9.124;2024-01-11T11:25:31;70.00;;;33.95;;
31734;SDS011;18313;48.518;9.124;2024-01-11T11:27:59;67.20;;;34.90;;
31734;SDS011;18313;48.518;9.124;2024-01-11T11:30:37;72.95;;;34.67;;
31734;SDS011;18313;48.518;9.124;2024-01-11T11:33:09;75.77;;;35.10;;
31734;SDS011;18313;48.518;9.124;2024-01-11T11:35:37;72.03;;;36.38;;
31734;SDS011;18313;48.518;9.124;2024-01-11T11:38:05;70.07;;;34.72;;
31734;SDS011;18313;48.518;9.124;2024-01-11T11:40:33;77.20;;;35.60;;
31734;SDS011;18313;48.518;9.124;2024-01-11T11:43:06;74.70;;;35.73;;
31734;SDS011;18313;48.518;9.124;2024-01-11T11:45:33;73.50;;;35.38;;
31734;SDS011;18313;48.518;9.124;2024-01-11T11:48:01;79.32;;;35.63;;
31734;SDS011;18313;48.518;9.124;2024-01-11T11:51:00;66.00;;;34.72;;
31734;SDS011;18313;48.518;9.124;2024-01-11T11:53:31;72.05;;;34.97;;
31734;SDS011;18313;48.518;9.124;2024-01-11T11:56:00;72.28;;;35.22;;
31734;SDS011;18313;48.518;9.124;2024-01-11T11:58:29;70.35;;;35.83;;
31734;SDS011;18313;48.518;9.124;2024-01-11T12:00:57;70.85;;;34.85;;
31734;SDS011;18313;48.518;9.124;2024-01-11T12:03:28;70.82;;;35.35;;
31734;SDS011;18313;48.518;9.124;2024-01-11T12:06:06;67.40;;;33.05;;
31734;SDS011;18313;48.518;9.124;2024-01-11T12:08:35;71.57;;;34.40;;
31734;SDS011;18313;48.518;9.124;2024-01-11T12:11:03;67.25;;;34.97;;
31734;SDS011;18313;48.518;9.124;2024-01-11T12:13:32;71.55;;;35.42;;
31734;SDS011;18313;48.518;9.124;2024-01-11T12:15:59;75.10;;;36.95;;
31734;SDS011;18313;48.518;9.124;2024-01-11T12:18:27;72.38;;;35.58;;
31734;SDS011;18313;48.518;9.124;2024-01-11T12:20:54;68.07;;;34.65;;
31734;SDS011;18313;48.518;9.124;2024-01-11T12:23:21;67.00;;;35.35;;
31734;SDS011;18313;48.518;9.124;2024-01-11T12:25:49;72.20;;;35.70;;
31734;SDS011;18313;48.518;9.124;2024-01-11T12:28:17;72.65;;;35.80;;
31734;SDS011;18313;48.518;9.124;2024-01-11T12:30:44;65.05;;;33.97;;
31734;SDS011;18313;48.518;9.124;2024-01-11T12:33:12;66.97;;;35.60;;
31734;SDS011;18313;48.518;9.124;2024-01-11T12:35:40;69.50;;;35.75;;
31734;SDS011;18313;48.518;9.124;2024-01-11T12:38:07;74.20;;;35.33;;
31734;SDS011;18313;48.518;9.124;2024-01-11T12:40:38;68.43;;;35.28;;
31734;SDS011;18313;48.518;9.124;2024-01-11T12:43:06;67.38;;;35.45;;
31734;SDS011;18313;48.518;9.124;2024-01-11T12:45:34;73.53;;;35.78;;
31734;SDS011;18313;48.518;9.124;2024-01-11T12:48:02;64.80;;;34.42;;
31734;SDS011;18313;48.518;9.124;2024-01-11T12:50:30;68.03;;;35.40;;
31734;SDS011;18313;48.518;9.124;2024-01-11T12:55:31;64.85;;;34.55;;
31734;SDS011;18313;48.518;9.124;2024-01-11T12:58:20;70.72;;;35.42;;
31734;SDS011;18313;48.518;9.124;2024-01-11T13:00:53;69.30;;;35.60;;
31734;SDS011;18313;48.518;9.124;2024-01-11T13:03:20;65.63;;;34.47;;
31734;SDS011;18313;48.518;9.124;2024-01-11T13:05:48;68.43;;;34.70;;
31734;SDS011;18313;48.518;9.124;2024-01-11T13:08:17;72.13;;;35.30;;
31734;SDS011;18313;48.518;9.124;2024-01-11T13:10:47;69.75;;;35.50;;
31734;SDS011;18313;48.518;9.124;2024-01-11T13:13:15;73.90;;;35.28;;
31734;SDS011;18313;48.518;9.124;2024-01-11T13:15:43;67.63;;;33.97;;
31734;SDS011;18313;48.518;9.124;2024-01-11T13:18:11;66.55;;;35.67;;
31734;SDS011;18313;48.518;9.124;2024-01-11T13:20:39;67.72;;;34.67;;
31734;SDS011;18313;48.518;9.124;2024-01-11T13:23:16;65.72;;;33.80;;
31734;SDS011;18313;48.518;9.124;2024-01-11T13:25:48;67.68;;;33.95;;
31734;SDS011;18313;48.518;9.124;2024-01-11T13:28:17;70.50;;;35.33;;
31734;SDS011;18313;48.518;9.124;2024-01-11T13:30:47;64.78;;;34.22;;
31734;SDS011;18313;48.518;9.124;2024-01-11T13:33:17;68.20;;;34.88;;
31734;SDS011;18313;48.518;9.124;2024-01-11T13:35:46;66.82;;;34.65;;
31734;SDS011;18313;48.518;9.124;2024-01-11T13:38:13;70.90;;;36.97;;
31734;SDS011;18313;48.518;9.124;2024-01-11T13:40:41;68.25;;;35.60;;
31734;SDS011;18313;48.518;9.124;2024-01-11T13:43:09;68.45;;;35.70;;
31734;SDS011;18313;48.518;9.124;2024-01-11T13:45:37;65.47;;;34.60;;
31734;SDS011;18313;48.518;9.124;2024-01-11T13:48:04;64.20;;;33.95;;
31734;SDS011;18313;48.518;9.124;2024-01-11T13:50:33;66.10;;;35.28;;
31734;SDS011;18313;48.518;9.124;2024-01-11T13:53:00;71.10;;;34.75;;
31734;SDS011;18313;48.518;9.124;2024-01-11T13:55:28;69.40;;;35.13;;
31734;SDS011;18313;48.518;9.124;2024-01-11T13:58:05;68.45;;;35.05;;
31734;SDS011;18313;48.518;9.124;2024-01-11T14:00:32;65.43;;;34.28;;
31734;SDS011;18313;48.518;9.124;2024-01-11T14:03:00;64.25;;;34.65;;
31734;SDS011;18313;48.518;9.124;2024-01-11T14:05:28;70.28;;;35.58;;
31734;SDS011;18313;48.518;9.124;2024-01-11T14:07:55;64.47;;;34.28;;
31734;SDS011;18313;48.518;9.124;2024-01-11T14:10:26;64.72;;;34.28;;
31734;SDS011;18313;48.518;9.124;2024-01-11T14:12:54;66.97;;;34.92;;
31734;SDS011;18313;48.518;9.124;2024-01-11T14:15:21;67.18;;;35.33;;
31734;SDS011;18313;48.518;9.124;2024-01-11T14:17:49;68.15;;;36.05;;
31734;SDS011;18313;48.518;9.124;2024-01-11T14:20:17;65.60;;;35.03;;
31734;SDS011;18313;48.518;9.124;2024-01-11T14:22:45;68.68;;;35.47;;
31734;SDS011;18313;48.518;9.124;2024-01-11T14:25:17;71.40;;;35.50;;
31734;SDS011;18313;48.518;9.124;2024-01-11T14:27:46;69.35;;;35.42;;
31734;SDS011;18313;48.518;9.124;2024-01-11T14:30:14;68.80;;;35.40;;
31734;SDS011;18313;48.518;9.124;2024-01-11T14:32:41;67.35;;;35.55;;